createdAt,value
2022-10-21T00:02:15.794Z,2.88
2022-10-21T00:12:17.540Z,2.85
2022-10-21T00:22:19.276Z,3.33
2022-10-21T00:32:21.116Z,3.15
2022-10-21T00:42:28.523Z,3.08
2022-10-21T00:52:33.471Z,2.92
2022-10-21T01:02:35.345Z,2.78
2022-10-21T01:13:09.547Z,2.72
2022-10-21T01:23:29.054Z,2.80
2022-10-21T01:33:42.880Z,2.78
2022-10-21T01:44:08.224Z,2.60
2022-10-21T01:54:18.951Z,2.85
2022-10-21T02:04:21.754Z,2.45
2022-10-21T02:14:29.274Z,2.75
2022-10-21T02:24:51.121Z,2.47
2022-10-21T02:35:07.754Z,2.63
2022-10-21T02:45:10.198Z,2.75
2022-10-21T02:55:12.099Z,2.28
2022-10-21T03:05:14.042Z,2.95
2022-10-21T03:15:16.103Z,3.53
2022-10-21T03:25:18.040Z,2.60
2022-10-21T03:35:21.020Z,2.63
2022-10-21T03:45:22.780Z,2.38
2022-10-21T03:55:25.233Z,2.45
2022-10-21T04:05:27.016Z,2.30
2022-10-21T04:15:28.796Z,2.10
2022-10-21T04:25:30.619Z,2.00
2022-10-21T04:35:32.401Z,2.22
2022-10-21T04:45:34.224Z,2.55
2022-10-21T04:55:39.208Z,2.10
2022-10-21T05:05:41.021Z,2.13
2022-10-21T05:15:42.794Z,1.98
2022-10-21T05:25:45.460Z,1.60
2022-10-21T05:35:56.663Z,2.28
2022-10-21T05:45:58.557Z,2.00
2022-10-21T05:56:05.612Z,1.70
2022-10-21T06:06:08.371Z,2.33
2022-10-21T06:16:12.563Z,2.05
2022-10-21T06:26:16.290Z,1.98
2022-10-21T06:36:18.168Z,1.60
2022-10-21T06:46:20.076Z,1.85
2022-10-21T06:56:23.276Z,2.30
2022-10-21T07:06:25.147Z,2.95
2022-10-21T07:16:32.396Z,2.70
2022-10-21T07:26:35.008Z,2.15
2022-10-21T07:36:39.924Z,2.50
2022-10-21T07:46:43.369Z,2.38
2022-10-21T07:56:48.567Z,3.50
2022-10-21T08:06:50.564Z,5.10
2022-10-21T08:16:53.802Z,2.65
2022-10-21T08:26:56.073Z,3.90
2022-10-21T08:36:57.875Z,3.88
2022-10-21T08:57:16.758Z,3.33
2022-10-21T09:07:43.012Z,2.45
2022-10-21T09:18:22.986Z,3.30
2022-10-21T09:28:26.193Z,1.90
2022-10-21T09:38:37.738Z,2.85
2022-10-21T09:49:16.352Z,2.97
2022-10-21T09:59:11.587Z,1.85
2022-10-21T10:09:27.422Z,2.35
2022-10-21T10:19:29.320Z,1.88
2022-10-21T10:29:31.579Z,1.15
2022-10-21T10:39:36.547Z,1.55
2022-10-21T10:49:41.261Z,1.02
2022-10-21T10:59:52.220Z,0.95
2022-10-21T11:10:00.821Z,0.88
2022-10-21T11:20:40.513Z,0.77
2022-10-21T11:31:24.221Z,1.70
2022-10-21T11:41:30.853Z,0.80
2022-10-21T11:51:38.472Z,0.80
2022-10-21T12:02:05.290Z,0.70
2022-10-21T12:12:16.108Z,0.82
2022-10-21T12:22:18.303Z,1.63
2022-10-21T12:32:28.201Z,2.05
2022-10-21T12:42:30.208Z,2.38
2022-10-21T12:52:38.115Z,0.68
2022-10-21T13:02:59.847Z,0.50
2022-10-21T13:13:28.243Z,0.47
2022-10-21T13:23:37.557Z,0.50
2022-10-21T13:33:39.566Z,0.55
2022-10-21T13:44:12.794Z,0.80
2022-10-21T13:54:16.086Z,0.50
2022-10-21T14:04:23.678Z,0.63
2022-10-21T14:14:27.823Z,1.35
2022-10-21T14:24:47.812Z,0.57
2022-10-21T14:35:08.432Z,1.73
2022-10-21T14:45:17.964Z,2.63
2022-10-21T14:55:33.938Z,2.33
2022-10-21T15:05:48.970Z,3.92
2022-10-21T15:15:54.347Z,3.65
2022-10-21T15:26:00.597Z,2.40
2022-10-21T15:36:05.311Z,55.63
2022-10-21T15:46:07.070Z,57.42
2022-10-21T15:56:14.587Z,46.03
2022-10-21T16:06:19.635Z,18.02
2022-10-21T16:16:24.903Z,8.85
2022-10-21T16:26:28.681Z,5.47
2022-10-21T16:36:36.557Z,6.47
2022-10-21T16:46:53.182Z,7.63
2022-10-21T16:56:55.627Z,3.42
2022-10-21T17:07:00.017Z,6.57
2022-10-21T17:17:02.561Z,5.15
2022-10-21T17:27:04.324Z,3.78
2022-10-21T17:37:07.563Z,2.33
2022-10-21T17:47:09.457Z,2.60
2022-10-21T17:57:12.242Z,3.40
2022-10-21T18:07:16.963Z,2.03
2022-10-21T18:17:20.336Z,4.35
2022-10-21T18:27:22.354Z,3.83
2022-10-21T18:37:24.312Z,2.17
2022-10-21T18:47:28.227Z,2.42
2022-10-21T18:57:30.124Z,2.05
2022-10-21T19:07:31.962Z,2.92
2022-10-21T19:17:33.928Z,2.05
2022-10-21T19:27:35.688Z,2.33
2022-10-21T19:37:37.628Z,2.50
2022-10-21T19:47:39.583Z,2.30
2022-10-21T19:57:41.655Z,1.45
2022-10-21T20:07:43.758Z,2.03
2022-10-21T20:17:45.864Z,1.92
2022-10-21T20:27:48.079Z,1.00
2022-10-21T20:37:49.914Z,1.02
2022-10-21T20:47:51.664Z,2.03
2022-10-21T20:57:53.458Z,1.92
2022-10-21T21:07:55.253Z,1.42
2022-10-21T21:17:58.660Z,1.50
2022-10-21T21:28:00.487Z,1.63
2022-10-21T21:38:02.248Z,1.00
2022-10-21T21:48:04.359Z,1.67
2022-10-21T21:58:06.766Z,1.05
2022-10-21T22:08:10.115Z,1.67
2022-10-21T22:18:11.854Z,0.80
2022-10-21T22:28:13.675Z,0.93
2022-10-21T22:38:15.503Z,2.70
2022-10-21T22:48:17.547Z,1.20
2022-10-21T22:58:21.278Z,0.47
2022-10-21T23:08:25.418Z,0.60
2022-10-21T23:18:27.234Z,0.70
2022-10-21T23:28:30.281Z,0.77
2022-10-21T23:38:32.021Z,0.93
2022-10-21T23:48:33.898Z,0.40
2022-10-21T23:58:35.619Z,0.80
